Time;durP1;ratioP1;P1;durP2;ratioP2;P2;SDS_P1;SDS_P2;PMS_P1;PMS_P2;Temp;Humidity;BMP_temperature;BMP_pressure;BME280_temperature;BME280_humidity;BME280_pressure;Samples;Min_cycle;Max_cycle;Signal;HPM_P1;HPM_P2
2023/07/28 00:00:56;;;;;;;2.65;1.30;;;;;;;15.74;51.31;94028.06;5044838;28;20040;-76
2023/07/28 00:03:22;;;;;;;5.65;1.42;;;;;;;15.76;51.70;94030.41;5044903;28;20021;-76
2023/07/28 00:05:47;;;;;;;2.65;1.42;;;;;;;15.73;52.16;94026.47;5043558;28;20021;-77
2023/07/28 00:08:12;;;;;;;2.33;1.50;;;;;;;15.73;52.58;94028.38;5044708;28;20404;-77
2023/07/28 00:10:42;;;;;;;3.92;1.42;;;;;;;15.71;52.52;94020.63;5043464;28;20108;-76
2023/07/28 00:13:07;;;;;;;3.97;1.45;;;;;;;15.77;52.47;94022.00;5044824;28;20128;-76
2023/07/28 00:15:33;;;;;;;3.13;1.75;;;;;;;15.77;51.97;94027.38;5044826;28;20025;-77
2023/07/28 00:17:59;;;;;;;2.70;1.38;;;;;;;15.67;52.32;94019.75;5044508;28;20036;-76
2023/07/28 00:20:26;;;;;;;2.50;1.40;;;;;;;15.64;52.62;94028.50;5044296;28;20025;-76
2023/07/28 00:22:51;;;;;;;8.27;1.70;;;;;;;15.64;52.83;94023.13;5044538;28;20104;-77
2023/07/28 00:25:17;;;;;;;4.93;1.23;;;;;;;15.63;52.90;94026.94;5044419;28;20071;-77
2023/07/28 00:27:42;;;;;;;4.28;1.40;;;;;;;15.54;52.68;94020.91;5044250;28;20031;-76
2023/07/28 00:30:10;;;;;;;8.15;1.50;;;;;;;15.45;52.86;94019.16;5044360;28;20048;-76
2023/07/28 00:32:35;;;;;;;4.63;1.60;;;;;;;15.45;53.32;94021.84;5044411;28;20045;-77
2023/07/28 00:35:01;;;;;;;4.57;1.42;;;;;;;15.37;53.78;94011.25;5044562;28;20071;-77
2023/07/28 00:37:26;;;;;;;2.85;1.38;;;;;;;15.30;54.18;94011.78;5044142;28;20048;-76
2023/07/28 00:39:52;;;;;;;3.15;1.60;;;;;;;15.35;53.67;94022.31;5043996;28;20022;-76
2023/07/28 00:42:17;;;;;;;4.70;1.67;;;;;;;15.21;53.68;94024.56;5044080;28;20076;-76
2023/07/28 00:44:43;;;;;;;3.10;1.70;;;;;;;15.15;53.91;94026.69;5042933;28;20295;-77
2023/07/28 00:47:08;;;;;;;3.35;1.42;;;;;;;15.11;54.19;94033.09;5044086;28;20032;-77
2023/07/28 00:49:34;;;;;;;4.90;1.92;;;;;;;15.15;54.80;94033.97;5044135;28;20064;-77
2023/07/28 00:52:00;;;;;;;4.20;1.92;;;;;;;15.10;55.12;94026.13;5043790;28;20025;-77
2023/07/28 00:54:25;;;;;;;2.53;1.60;;;;;;;15.04;55.48;94029.06;5043939;28;20354;-77
2023/07/28 00:56:51;;;;;;;6.82;1.40;;;;;;;15.00;54.93;94017.44;5043868;28;20017;-76
2023/07/28 00:59:16;;;;;;;6.05;1.55;;;;;;;14.96;55.44;94016.53;5043861;28;20067;-76
2023/07/28 01:01:42;;;;;;;2.78;1.45;;;;;;;14.91;56.05;94024.81;5043650;28;20093;-76
2023/07/28 01:04:07;;;;;;;2.85;1.60;;;;;;;14.75;56.64;94010.50;5043680;28;20025;-76
2023/07/28 01:06:57;;;;;;;9.15;1.73;;;;;;;14.61;57.29;94014.31;5043675;28;20040;-76
2023/07/28 01:09:29;;;;;;;4.63;2.30;;;;;;;14.59;57.88;94023.78;5042755;28;20024;-77
2023/07/28 01:11:58;;;;;;;3.17;1.65;;;;;;;14.59;58.21;94019.22;5043722;28;20140;-77
2023/07/28 01:14:24;;;;;;;3.33;1.58;;;;;;;14.56;57.77;94019.88;5043689;28;20132;-77
2023/07/28 01:16:50;;;;;;;4.32;1.80;;;;;;;14.47;57.82;94016.50;5043393;28;20098;-77
2023/07/28 01:19:20;;;;;;;7.07;1.92;;;;;;;14.40;57.93;94018.94;5043036;28;20029;-77
2023/07/28 01:21:53;;;;;;;5.00;2.10;;;;;;;14.32;58.10;94019.81;5043434;28;20033;-76
2023/07/28 01:24:50;;;;;;;3.75;2.65;;;;;;;14.24;58.84;94021.47;5042227;28;20033;-76
2023/07/28 01:27:16;;;;;;;3.03;1.83;;;;;;;14.17;59.47;94022.00;5043445;28;20018;-76
2023/07/28 01:29:42;;;;;;;7.20;1.80;;;;;;;14.22;59.12;94021.00;5043124;28;20017;-75
2023/07/28 01:32:10;;;;;;;4.25;2.10;;;;;;;14.21;58.85;94025.59;5043054;28;20322;-76
2023/07/28 01:34:35;;;;;;;3.00;1.42;;;;;;;14.16;58.18;94022.34;5043214;28;20029;-75
2023/07/28 01:37:01;;;;;;;7.22;1.90;;;;;;;14.09;58.18;94022.88;5042631;28;20021;-77
2023/07/28 01:39:26;;;;;;;4.60;1.88;;;;;;;13.96;58.60;94018.59;5042944;28;20255;-76
2023/07/28 01:41:51;;;;;;;3.00;1.60;;;;;;;13.97;59.02;94020.16;5043073;28;20025;-77
2023/07/28 01:44:17;;;;;;;5.32;1.90;;;;;;;13.98;59.35;94016.38;5042957;28;20056;-76
2023/07/28 01:46:42;;;;;;;3.00;1.80;;;;;;;13.96;59.24;94018.59;5042969;28;20357;-76
2023/07/28 01:49:08;;;;;;;4.18;2.10;;;;;;;13.92;59.55;94018.50;5042911;28;20024;-77
2023/07/28 01:51:33;;;;;;;3.55;2.08;;;;;;;13.90;59.35;94025.25;5042995;28;20021;-77
2023/07/28 01:53:58;;;;;;;6.25;2.17;;;;;;;13.88;59.65;94017.59;5042975;28;20029;-77
2023/07/28 01:56:24;;;;;;;6.20;2.05;;;;;;;13.92;59.82;94020.38;5042485;28;20259;-77
2023/07/28 01:58:49;;;;;;;6.28;2.58;;;;;;;13.91;59.91;94024.94;5042692;28;20025;-77
2023/07/28 02:01:15;;;;;;;3.85;2.60;;;;;;;13.93;60.20;94022.72;5042872;28;20022;-77
2023/07/28 02:03:40;;;;;;;5.07;2.63;;;;;;;13.88;60.54;94032.84;5042756;28;20021;-77
2023/07/28 02:06:06;;;;;;;6.78;2.67;;;;;;;13.86;60.72;94030.53;5042730;28;20028;-77
2023/07/28 02:08:31;;;;;;;7.85;2.85;;;;;;;13.85;60.90;94020.91;5042910;28;20334;-76
2023/07/28 02:10:56;;;;;;;4.97;2.42;;;;;;;13.81;61.29;94026.13;5042521;28;20411;-77
2023/07/28 02:13:22;;;;;;;4.80;2.50;;;;;;;13.80;61.24;94027.25;5042619;28;20018;-77
2023/07/28 02:15:47;;;;;;;2.97;2.28;;;;;;;13.79;61.34;94020.31;5042684;28;20029;-77
2023/07/28 02:18:13;;;;;;;3.53;2.60;;;;;;;13.74;61.47;94017.84;5042417;28;20248;-77
2023/07/28 02:20:39;;;;;;;5.20;2.75;;;;;;;13.64;62.09;94018.25;5042515;28;20083;-77
2023/07/28 02:23:04;;;;;;;4.35;2.53;;;;;;;13.65;62.01;94019.81;5042672;28;20021;-77
2023/07/28 02:25:30;;;;;;;5.68;2.70;;;;;;;13.55;62.56;94030.91;5041319;28;20048;-77
2023/07/28 02:27:55;;;;;;;5.38;3.10;;;;;;;13.54;62.86;94034.72;5042417;28;20025;-77
2023/07/28 02:30:21;;;;;;;4.32;2.65;;;;;;;13.54;62.89;94029.38;5046011;28;20019;-77
2023/07/28 02:32:46;;;;;;;6.95;2.88;;;;;;;13.56;62.97;94027.16;5046492;28;20052;-76
2023/07/28 02:35:12;;;;;;;4.38;2.45;;;;;;;13.44;63.12;94034.00;5046459;28;20244;-77
2023/07/28 02:37:37;;;;;;;5.60;2.80;;;;;;;13.41;63.64;94031.19;5046456;28;20324;-77
2023/07/28 02:40:03;;;;;;;3.95;2.75;;;;;;;13.42;63.80;94027.41;5046466;28;20351;-76
2023/07/28 02:42:28;;;;;;;5.07;3.10;;;;;;;13.42;63.70;94024.72;5046319;28;20059;-78
2023/07/28 02:44:54;;;;;;;11.57;3.30;;;;;;;13.24;64.12;94021.34;5045241;28;20179;-77
2023/07/28 02:47:19;;;;;;;7.22;3.22;;;;;;;13.14;64.72;94029.75;5046385;28;20055;-77
2023/07/28 02:49:45;;;;;;;10.90;3.95;;;;;;;13.16;64.65;94036.34;5046125;28;20071;-76
2023/07/28 02:52:11;;;;;;;10.13;2.63;;;;;;;13.21;64.50;94028.16;5046120;28;20396;-77
2023/07/28 02:54:36;;;;;;;10.75;3.13;;;;;;;13.16;64.49;94031.00;5046247;28;20022;-77
2023/07/28 02:57:02;;;;;;;5.55;3.05;;;;;;;13.13;64.61;94023.63;5046276;28;20056;-77
2023/07/28 02:59:28;;;;;;;5.57;3.20;;;;;;;13.06;64.88;94018.00;5045942;28;20055;-76
2023/07/28 03:01:53;;;;;;;6.00;3.20;;;;;;;13.08;64.93;94018.47;5046021;28;20136;-76
2023/07/28 03:04:20;;;;;;;5.30;3.20;;;;;;;13.12;64.81;94015.94;5046027;28;20096;-76
2023/07/28 03:06:46;;;;;;;6.82;3.17;;;;;;;13.01;64.99;94029.69;5045977;28;20307;-76
2023/07/28 03:09:11;;;;;;;13.00;3.22;;;;;;;12.97;65.40;94028.75;5045725;28;20093;-76
2023/07/28 03:11:36;;;;;;;6.43;3.20;;;;;;;12.94;65.53;94029.38;5045769;28;20189;-76
2023/07/28 03:14:02;;;;;;;6.82;3.40;;;;;;;12.88;66.00;94030.69;5044797;28;20079;-77
2023/07/28 03:16:28;;;;;;;9.40;3.08;;;;;;;12.98;65.64;94024.97;5045784;28;20097;-76
2023/07/28 03:18:53;;;;;;;7.45;2.97;;;;;;;13.00;65.63;94024.66;5045642;28;20053;-76
2023/07/28 03:21:18;;;;;;;8.88;3.42;;;;;;;13.04;65.42;94038.94;5045574;28;20097;-75
2023/07/28 03:23:44;;;;;;;4.82;2.90;;;;;;;13.00;65.43;94032.66;5045598;28;20112;-75
2023/07/28 03:26:09;;;;;;;7.07;3.30;;;;;;;13.06;65.84;94042.09;5045538;28;20072;-75
2023/07/28 03:28:35;;;;;;;7.30;3.53;;;;;;;13.01;65.69;94042.28;5044431;28;20052;-75
2023/07/28 03:31:01;;;;;;;11.40;5.78;;;;;;;13.01;65.87;94045.72;5045328;28;20052;-75
2023/07/28 03:33:26;;;;;;;7.53;4.00;;;;;;;13.09;65.80;94048.66;5045247;28;20104;-75
2023/07/28 03:35:52;;;;;;;10.02;5.95;;;;;;;13.09;65.56;94046.81;5045394;28;20052;-76
2023/07/28 03:38:18;;;;;;;14.82;4.57;;;;;;;13.10;65.91;94051.03;5045238;28;20045;-76
2023/07/28 03:40:43;;;;;;;11.90;3.95;;;;;;;13.12;66.10;94048.81;5045154;28;20040;-76
2023/07/28 03:43:09;;;;;;;13.23;3.58;;;;;;;13.14;66.18;94043.91;5045019;28;20223;-75
2023/07/28 03:45:35;;;;;;;13.70;3.55;;;;;;;13.15;66.26;94042.06;5045396;28;20047;-76
2023/07/28 03:48:00;;;;;;;8.40;3.63;;;;;;;13.13;66.06;94058.41;5045133;28;20025;-76
2023/07/28 03:50:26;;;;;;;7.25;3.35;;;;;;;13.19;65.43;94045.66;5044993;28;20022;-77
2023/07/28 03:52:52;;;;;;;5.10;3.30;;;;;;;13.30;64.44;94049.53;5044998;28;20033;-76
2023/07/28 03:55:17;;;;;;;8.68;3.33;;;;;;;13.37;63.56;94040.97;5045095;28;20067;-76
2023/07/28 03:57:42;;;;;;;6.72;3.15;;;;;;;13.40;63.83;94046.47;5044949;28;20021;-76
2023/07/28 04:00:08;;;;;;;10.23;2.97;;;;;;;13.40;63.94;94043.00;5044825;28;20229;-76
2023/07/28 04:02:34;;;;;;;9.43;3.40;;;;;;;13.44;63.35;94046.59;5043803;28;20374;-76
2023/07/28 04:04:59;;;;;;;7.88;3.78;;;;;;;13.57;64.18;94052.81;5043799;28;20061;-76
2023/07/28 04:07:25;;;;;;;8.05;3.30;;;;;;;13.55;63.44;94057.69;5044836;28;20111;-76
2023/07/28 04:09:50;;;;;;;5.60;3.63;;;;;;;13.59;64.43;94061.28;5044752;28;20017;-74
2023/07/28 04:12:16;;;;;;;5.32;2.80;;;;;;;13.54;64.01;94066.84;5044610;28;20354;-76
2023/07/28 04:14:41;;;;;;;4.80;3.42;;;;;;;13.53;63.53;94059.91;5044425;28;20058;-76
2023/07/28 04:17:07;;;;;;;7.20;3.55;;;;;;;13.61;64.07;94056.41;5044999;28;20025;-76
2023/07/28 04:19:33;;;;;;;6.47;3.03;;;;;;;13.74;62.80;94055.34;5044451;28;20429;-76
2023/07/28 04:22:00;;;;;;;7.65;3.28;;;;;;;13.76;62.54;94053.13;5044506;28;20032;-76
2023/07/28 04:24:25;;;;;;;4.43;3.10;;;;;;;13.89;62.37;94063.91;5044273;28;20052;-76
2023/07/28 04:26:51;;;;;;;12.23;3.70;;;;;;;13.95;62.20;94058.00;5044208;28;20308;-76
2023/07/28 04:29:17;;;;;;;12.35;3.30;;;;;;;14.02;61.68;94065.50;5044182;28;20017;-76
2023/07/28 04:31:42;;;;;;;8.02;4.97;;;;;;;14.12;61.07;94061.63;5044124;28;20041;-75
2023/07/28 04:34:07;;;;;;;6.30;2.85;;;;;;;14.23;59.51;94070.84;5044354;28;20267;-75
2023/07/28 04:36:33;;;;;;;5.35;2.55;;;;;;;14.20;59.09;94066.91;5044222;28;20021;-76
2023/07/28 04:38:58;;;;;;;5.20;2.78;;;;;;;14.30;59.05;94064.94;5044184;28;20032;-76
2023/07/28 04:41:24;;;;;;;39.28;5.35;;;;;;;14.36;58.69;94060.94;5044024;28;20179;-76
2023/07/28 04:43:49;;;;;;;7.35;3.33;;;;;;;14.34;58.41;94061.25;5044150;28;20022;-75
2023/07/28 04:46:15;;;;;;;10.13;3.00;;;;;;;14.41;59.05;94063.38;5043929;28;20048;-76
2023/07/28 04:48:40;;;;;;;5.68;2.58;;;;;;;14.47;59.44;94054.03;5042576;28;20246;-76
2023/07/28 04:51:06;;;;;;;12.02;3.28;;;;;;;14.63;58.68;94060.34;5042271;28;20029;-76
2023/07/28 04:53:31;;;;;;;10.25;3.35;;;;;;;14.72;57.71;94060.25;5043073;28;20089;-76
2023/07/28 04:55:57;;;;;;;7.10;3.00;;;;;;;14.75;57.38;94064.16;5043703;28;20100;-78
2023/07/28 04:58:22;;;;;;;10.30;2.70;;;;;;;14.83;57.22;94060.59;5043819;28;20063;-76
2023/07/28 05:00:48;;;;;;;6.68;2.78;;;;;;;14.90;57.45;94057.34;5044025;28;20036;-77
2023/07/28 05:03:13;;;;;;;10.63;3.67;;;;;;;15.03;57.86;94058.91;5043706;28;20059;-77
2023/07/28 05:05:38;;;;;;;8.80;2.90;;;;;;;15.15;57.77;94058.91;5043621;28;20033;-77
2023/07/28 05:08:04;;;;;;;4.45;2.85;;;;;;;15.23;57.02;94057.25;5043672;28;20068;-77
2023/07/28 05:10:29;;;;;;;6.03;3.10;;;;;;;15.25;56.54;94057.69;5043595;28;20371;-76
2023/07/28 05:12:55;;;;;;;9.70;3.10;;;;;;;15.36;56.72;94061.47;5043607;28;20207;-76
2023/07/28 05:15:23;;;;;;;8.00;3.03;;;;;;;15.36;56.52;94058.00;5043445;28;20211;-76
2023/07/28 05:17:49;;;;;;;6.00;2.67;;;;;;;15.35;56.46;94059.13;5043424;28;20111;-76
2023/07/28 05:20:14;;;;;;;10.77;2.75;;;;;;;15.44;56.37;94062.47;5043276;28;20029;-76
2023/07/28 05:22:39;;;;;;;10.68;3.63;;;;;;;15.49;56.71;94059.56;5043356;28;20025;-77
2023/07/28 05:25:07;;;;;;;13.25;3.88;;;;;;;15.62;56.24;94057.63;5043307;28;20055;-76
2023/07/28 05:27:33;;;;;;;6.75;2.67;;;;;;;15.59;56.44;94067.16;5043356;28;20041;-76
2023/07/28 05:29:58;;;;;;;8.85;3.03;;;;;;;15.74;56.19;94054.16;5043383;28;20089;-76
2023/07/28 05:32:24;;;;;;;8.75;3.10;;;;;;;15.84;56.18;94059.81;5043132;28;20053;-76
2023/07/28 05:34:49;;;;;;;4.63;3.00;;;;;;;16.01;55.93;94066.03;5043299;28;20029;-76
2023/07/28 05:37:15;;;;;;;14.38;3.80;;;;;;;16.14;55.70;94056.81;5042916;28;20053;-76
2023/07/28 05:39:40;;;;;;;15.52;3.83;;;;;;;16.23;54.89;94065.50;5042910;28;20075;-76
2023/07/28 05:42:06;;;;;;;7.50;3.33;;;;;;;16.28;55.03;94069.06;5043204;28;20029;-76
2023/07/28 05:44:31;;;;;;;9.98;3.58;;;;;;;16.30;54.54;94062.19;5041816;28;20064;-76
2023/07/28 05:46:57;;;;;;;11.82;4.90;;;;;;;16.36;53.98;94060.06;5041059;28;20240;-77
2023/07/28 05:49:22;;;;;;;8.80;3.15;;;;;;;16.35;54.48;94058.50;5042822;28;20024;-76
2023/07/28 05:51:51;;;;;;;7.20;3.72;;;;;;;16.50;53.00;94055.03;5042341;28;20100;-76
2023/07/28 05:54:16;;;;;;;13.05;3.50;;;;;;;16.60;52.81;94054.53;5042717;28;20224;-75
2023/07/28 05:56:42;;;;;;;7.60;3.05;;;;;;;16.56;52.12;94050.97;5042705;28;20025;-76
2023/07/28 05:59:08;;;;;;;4.97;2.95;;;;;;;16.47;52.22;94050.38;5042952;28;20039;-74
2023/07/28 06:01:33;;;;;;;4.13;2.38;;;;;;;16.40;52.11;94052.84;5043013;28;20044;-73
2023/07/28 06:03:59;;;;;;;8.93;2.67;;;;;;;16.56;52.52;94039.44;5041788;28;20021;-73
2023/07/28 06:06:26;;;;;;;7.80;2.60;;;;;;;16.72;52.34;94042.13;5042865;28;20040;-74
2023/07/28 06:08:52;;;;;;;7.53;3.35;;;;;;;16.69;51.88;94040.13;5042441;28;20017;-74
2023/07/28 06:11:17;;;;;;;6.45;3.42;;;;;;;16.53;51.54;94035.53;5042026;28;20075;-73
2023/07/28 06:13:43;;;;;;;9.05;3.05;;;;;;;16.68;52.76;94041.25;5042669;28;20033;-74
2023/07/28 06:16:09;;;;;;;6.15;3.00;;;;;;;16.95;52.17;94039.63;5042479;28;20200;-74
2023/07/28 06:18:34;;;;;;;13.27;3.10;;;;;;;17.05;51.41;94034.50;5042593;28;20101;-73
2023/07/28 06:21:00;;;;;;;5.40;3.00;;;;;;;17.27;51.45;94037.69;5042536;28;20033;-73
2023/07/28 06:23:25;;;;;;;14.02;3.80;;;;;;;17.42;51.42;94036.88;5041495;28;20317;-73
2023/07/28 06:25:51;;;;;;;18.58;3.35;;;;;;;17.59;49.98;94034.91;5042515;28;20168;-73
2023/07/28 06:28:16;;;;;;;9.27;3.38;;;;;;;17.38;49.89;94040.59;5042450;28;20033;-73
2023/07/28 06:30:42;;;;;;;13.02;3.38;;;;;;;17.50;49.13;94028.94;5042651;28;20025;-73
2023/07/28 06:33:08;;;;;;;5.07;2.97;;;;;;;17.64;50.31;94021.16;5041164;28;20072;-73
2023/07/28 06:35:33;;;;;;;15.00;3.10;;;;;;;17.74;49.07;94023.28;5042591;28;20127;-73
2023/07/28 06:38:00;;;;;;;21.15;3.40;;;;;;;17.87;48.37;94028.56;5042206;28;20080;-73
2023/07/28 06:40:26;;;;;;;21.02;7.22;;;;;;;17.96;49.42;94031.84;5041364;28;20033;-75
2023/07/28 06:42:51;;;;;;;5.55;3.58;;;;;;;18.00;49.37;94027.28;5041335;28;20180;-75
2023/07/28 06:45:17;;;;;;;11.07;2.38;;;;;;;18.08;48.47;94023.59;5040054;28;20348;-74
2023/07/28 06:47:42;;;;;;;6.72;2.40;;;;;;;18.20;47.74;94036.94;5041100;28;20034;-73
2023/07/28 06:50:08;;;;;;;9.30;2.70;;;;;;;18.22;47.11;94037.34;5041045;28;20021;-74
2023/07/28 06:52:34;;;;;;;7.18;2.88;;;;;;;18.33;46.96;94034.06;5041425;28;20342;-74
2023/07/28 06:54:59;;;;;;;4.10;2.55;;;;;;;18.27;47.23;94025.50;5042167;28;20033;-74
2023/07/28 06:57:25;;;;;;;7.60;2.10;;;;;;;18.44;47.85;94026.97;5042278;28;20021;-73
2023/07/28 06:59:50;;;;;;;5.40;2.45;;;;;;;18.48;46.92;94035.09;5042203;28;20048;-73
2023/07/28 07:02:16;;;;;;;9.15;2.38;;;;;;;18.55;45.72;94024.44;5041999;28;20323;-74
2023/07/28 07:04:42;;;;;;;4.13;1.88;;;;;;;18.60;46.15;94035.72;5042280;28;20022;-74
2023/07/28 07:07:08;;;;;;;9.35;3.38;;;;;;;18.65;47.03;94029.25;5042166;28;20293;-74
2023/07/28 07:09:34;;;;;;;11.02;2.22;;;;;;;18.77;45.97;94036.41;5042380;28;20093;-74
2023/07/28 07:12:00;;;;;;;13.23;2.75;;;;;;;18.74;46.92;94031.69;5042117;28;20035;-74
2023/07/28 07:14:25;;;;;;;4.28;2.10;;;;;;;18.73;46.52;94030.16;5042356;28;20045;-74
2023/07/28 07:16:51;;;;;;;6.70;2.45;;;;;;;18.79;46.01;94034.16;5045838;28;20125;-74
2023/07/28 07:19:16;;;;;;;7.47;2.50;;;;;;;18.84;47.22;94025.72;5045710;28;20200;-74
2023/07/28 07:21:44;;;;;;;14.98;2.40;;;;;;;18.95;46.01;94028.59;5045507;28;20021;-75
2023/07/28 07:24:10;;;;;;;7.05;2.67;;;;;;;18.91;45.95;94033.97;5045471;28;20096;-75
2023/07/28 07:26:35;;;;;;;5.95;2.40;;;;;;;19.06;46.51;94036.88;5044410;28;20025;-74
2023/07/28 07:29:00;;;;;;;6.75;2.88;;;;;;;19.17;47.04;94040.50;5045475;28;20081;-74
2023/07/28 07:31:26;;;;;;;11.68;2.97;;;;;;;19.22;45.80;94040.22;5045423;28;20450;-74
2023/07/28 07:33:51;;;;;;;5.35;2.25;;;;;;;19.17;45.31;94044.00;5045469;28;20021;-74
2023/07/28 07:36:18;;;;;;;5.68;2.30;;;;;;;19.09;46.19;94047.75;5045339;28;20013;-74
2023/07/28 07:38:48;;;;;;;4.65;2.70;;;;;;;19.31;44.80;94042.66;5045265;28;20220;-74
2023/07/28 07:41:19;;;;;;;16.00;2.90;;;;;;;19.42;44.91;94044.38;5045461;28;20021;-75
2023/07/28 07:43:45;;;;;;;7.53;2.67;;;;;;;19.48;45.03;94047.56;5044093;28;20092;-74
2023/07/28 07:46:10;;;;;;;18.63;3.63;;;;;;;19.53;45.50;94043.75;5045454;28;20032;-74
2023/07/28 07:48:35;;;;;;;21.85;2.45;;;;;;;19.58;44.87;94043.41;5045442;28;20339;-74
2023/07/28 07:51:01;;;;;;;5.70;2.60;;;;;;;19.74;44.63;94046.78;5045220;28;20063;-74
2023/07/28 07:53:26;;;;;;;9.70;2.70;;;;;;;19.77;44.29;94047.97;5045198;28;20034;-73
2023/07/28 07:55:52;;;;;;;5.80;2.55;;;;;;;19.64;44.80;94045.44;5045109;28;20272;-74
2023/07/28 07:58:17;;;;;;;6.00;2.63;;;;;;;19.63;44.47;94043.09;5044991;28;20022;-74
2023/07/28 08:00:44;;;;;;;14.07;3.28;;;;;;;19.84;44.84;94054.25;5045047;28;20017;-74
2023/07/28 08:03:10;;;;;;;12.25;2.78;;;;;;;20.02;44.20;94043.63;5045080;28;20256;-74
2023/07/28 08:05:35;;;;;;;10.43;3.00;;;;;;;20.08;43.23;94038.69;5045121;28;20033;-75
2023/07/28 08:08:01;;;;;;;6.00;2.80;;;;;;;20.02;43.67;94048.25;5044705;28;20032;-74
2023/07/28 08:10:27;;;;;;;10.60;2.80;;;;;;;20.21;43.54;94048.13;5043579;28;20052;-74
2023/07/28 08:12:53;;;;;;;9.68;3.10;;;;;;;20.38;43.69;94049.44;5043836;28;20041;-72
2023/07/28 08:15:18;;;;;;;6.28;2.10;;;;;;;20.43;43.24;94041.00;5043748;28;20064;-73
2023/07/28 08:17:45;;;;;;;6.95;2.40;;;;;;;20.45;42.89;94040.63;5044511;28;20222;-71
2023/07/28 08:20:11;;;;;;;5.22;2.80;;;;;;;20.55;41.89;94042.66;5044613;28;20036;-72
2023/07/28 08:22:37;;;;;;;6.10;2.63;;;;;;;20.68;41.97;94040.50;5044669;28;20030;-72
2023/07/28 08:25:05;;;;;;;8.45;2.70;;;;;;;20.67;42.56;94041.66;5043573;28;20049;-72
2023/07/28 08:27:31;;;;;;;3.55;2.40;;;;;;;20.73;41.41;94039.38;5043180;28;20254;-72
2023/07/28 08:29:56;;;;;;;6.82;2.50;;;;;;;20.90;41.39;94043.38;5044567;28;20128;-71
2023/07/28 08:32:22;;;;;;;8.85;2.08;;;;;;;21.02;40.98;94038.47;5044351;28;20335;-71
2023/07/28 08:34:47;;;;;;;8.40;2.35;;;;;;;21.17;40.87;94044.00;5044465;28;20021;-72
2023/07/28 08:37:13;;;;;;;9.23;2.30;;;;;;;21.26;40.88;94035.56;5044432;28;20212;-71
2023/07/28 08:39:38;;;;;;;9.20;2.40;;;;;;;21.25;40.76;94034.78;5044073;28;20031;-71
2023/07/28 08:42:04;;;;;;;6.78;2.38;;;;;;;21.41;40.76;94038.00;5044553;28;20048;-71
2023/07/28 08:44:34;;;;;;;9.27;2.88;;;;;;;21.54;40.07;94038.47;5044139;28;20260;-72
2023/07/28 08:47:04;;;;;;;7.40;3.13;;;;;;;21.60;39.38;94034.25;5044128;28;20036;-71
2023/07/28 08:49:35;;;;;;;16.42;2.45;;;;;;;21.65;39.85;94041.25;5043939;28;20059;-71
2023/07/28 08:52:01;;;;;;;11.77;2.55;;;;;;;21.66;39.15;94037.38;5009417;28;20041;-71
2023/07/28 08:54:27;;;;;;;11.55;3.00;;;;;;;21.70;39.18;94038.19;5041470;28;20096;-72
2023/07/28 08:56:52;;;;;;;7.53;2.85;;;;;;;21.71;38.77;94025.41;5043848;28;20140;-71
2023/07/28 08:59:26;;;;;;;6.22;2.72;;;;;;;21.67;39.67;94024.59;5043756;28;20022;-71
2023/07/28 09:01:54;;;;;;;8.38;2.58;;;;;;;21.72;39.77;94025.03;5043761;28;20017;-71
2023/07/28 09:04:21;;;;;;;5.55;2.83;;;;;;;21.70;39.42;94016.50;5043765;28;20025;-71
2023/07/28 09:06:48;;;;;;;5.30;2.22;;;;;;;21.73;39.62;94015.72;5043624;28;20025;-71
2023/07/28 09:09:14;;;;;;;10.85;2.70;;;;;;;21.72;39.36;94010.69;5043589;28;20063;-71
2023/07/28 09:11:51;;;;;;;7.55;2.42;;;;;;;21.81;38.83;94006.44;5043507;28;20264;-72
2023/07/28 09:14:19;;;;;;;6.40;2.35;;;;;;;21.97;38.16;94002.66;5043545;28;20018;-72
2023/07/28 09:16:45;;;;;;;13.00;3.33;;;;;;;21.88;38.60;94002.22;5043274;28;20024;-71
2023/07/28 09:19:11;;;;;;;8.80;2.60;;;;;;;21.91;38.56;93994.09;5043283;28;20048;-71
2023/07/28 09:21:42;;;;;;;5.93;2.47;;;;;;;22.10;39.06;93984.84;5043726;28;20025;-72
2023/07/28 09:24:13;;;;;;;8.75;2.83;;;;;;;22.28;39.55;93989.59;5043384;28;20029;-71
2023/07/28 09:26:42;;;;;;;9.10;2.42;;;;;;;22.44;38.75;93982.63;5043172;28;20070;-72
2023/07/28 09:29:29;;;;;;;7.00;2.30;;;;;;;22.57;40.39;93972.19;5043456;28;20043;-71
2023/07/28 09:32:05;;;;;;;13.18;2.35;;;;;;;22.78;38.95;93979.56;5043280;28;20041;-72
2023/07/28 09:34:32;;;;;;;10.30;2.90;;;;;;;22.93;38.02;93964.03;5043245;28;20021;-72
2023/07/28 09:36:59;;;;;;;7.63;2.25;;;;;;;23.05;37.97;93960.19;5043057;28;20025;-72
2023/07/28 09:39:25;;;;;;;10.95;3.50;;;;;;;23.15;36.37;93955.91;5042748;28;20044;-72
2023/07/28 09:41:51;;;;;;;10.70;3.08;;;;;;;23.20;37.04;93956.28;5042860;28;20036;-71
2023/07/28 09:44:17;;;;;;;9.20;2.50;;;;;;;23.31;36.39;93958.22;5043150;28;20025;-71
2023/07/28 09:46:51;;;;;;;6.47;1.98;;;;;;;23.41;35.98;93960.91;5042875;28;20035;-71
2023/07/28 09:49:41;;;;;;;12.63;2.67;;;;;;;23.48;35.78;93943.00;5042866;28;20021;-73
2023/07/28 09:52:09;;;;;;;5.93;2.30;;;;;;;23.62;36.39;93943.72;5041137;28;20049;-72
2023/07/28 09:54:40;;;;;;;14.88;3.35;;;;;;;23.76;34.90;93945.63;5043052;28;20148;-72
2023/07/28 09:57:11;;;;;;;6.07;2.53;;;;;;;23.79;34.28;93947.59;5041595;28;20271;-72
2023/07/28 09:59:41;;;;;;;9.02;2.30;;;;;;;23.74;34.63;93950.69;5042845;28;20092;-72
2023/07/28 10:02:09;;;;;;;5.50;2.42;;;;;;;23.76;34.10;93944.84;5042562;28;20053;-72
2023/07/28 10:04:36;;;;;;;7.93;2.97;;;;;;;23.77;33.85;93928.16;5042816;28;20025;-77
2023/07/28 10:07:03;;;;;;;6.55;2.22;;;;;;;23.78;33.99;93940.59;5042503;28;20091;-77
2023/07/28 10:09:33;;;;;;;9.98;3.13;;;;;;;23.82;34.61;93937.84;5041385;28;20029;-76
2023/07/28 10:11:59;;;;;;;10.25;2.10;;;;;;;23.93;34.40;93929.63;5041536;28;20036;-75
2023/07/28 10:14:28;;;;;;;10.35;2.67;;;;;;;23.84;35.10;93930.06;5042422;28;20231;-75
2023/07/28 10:16:55;;;;;;;8.60;2.58;;;;;;;23.85;35.40;93928.88;5042416;28;20029;-76
2023/07/28 10:19:21;;;;;;;9.82;2.53;;;;;;;24.04;35.06;93922.19;5042373;28;20025;-75
2023/07/28 10:21:46;;;;;;;7.82;2.30;;;;;;;24.36;35.18;93918.50;5042347;28;20041;-76
2023/07/28 10:24:13;;;;;;;5.20;2.60;;;;;;;24.65;35.47;93926.47;5040598;28;20092;-76
2023/07/28 10:26:44;;;;;;;8.45;3.10;;;;;;;24.87;34.92;93925.13;5040639;28;20040;-76
2023/07/28 10:29:16;;;;;;;5.97;1.80;;;;;;;25.00;32.54;93931.63;5040488;28;20017;-76
2023/07/28 10:31:51;;;;;;;;;;;;;;;24.96;31.99;93922.72;5040804;28;20324;-76
2023/07/28 10:34:17;;;;;;;12.27;2.78;;;;;;;24.96;32.29;93917.28;5040626;28;19909;-76
2023/07/28 10:36:44;;;;;;;11.82;2.45;;;;;;;24.98;32.08;93908.69;5040435;28;20033;-76
2023/07/28 10:39:17;;;;;;;9.48;2.70;;;;;;;25.08;31.66;93904.31;5041883;28;20089;-76
2023/07/28 10:42:05;;;;;;;9.98;2.63;;;;;;;25.12;30.43;93894.16;5042279;28;20057;-76
2023/07/28 10:44:31;;;;;;;14.02;2.67;;;;;;;25.17;31.79;93893.69;5042213;28;20021;-76
2023/07/28 10:46:57;;;;;;;9.93;2.90;;;;;;;25.40;32.99;93910.25;5042014;28;20337;-76
2023/07/28 10:49:25;;;;;;;8.68;2.45;;;;;;;25.43;30.70;93906.69;5042228;28;20081;-76
2023/07/28 10:51:50;;;;;;;6.13;2.10;;;;;;;25.45;27.65;93905.53;5046156;28;20104;-76
2023/07/28 10:54:19;;;;;;;7.28;1.60;;;;;;;25.21;27.41;93902.66;5045967;28;20022;-75
2023/07/28 10:56:46;;;;;;;5.05;1.58;;;;;;;25.30;27.21;93902.94;5045856;28;20028;-75
2023/07/28 10:59:11;;;;;;;3.67;1.83;;;;;;;25.40;27.83;93893.06;5045997;28;20026;-76
2023/07/28 11:01:38;;;;;;;6.03;1.92;;;;;;;25.50;27.64;93892.19;5044954;28;20278;-76
2023/07/28 11:04:15;;;;;;;5.18;1.95;;;;;;;25.47;29.05;93879.38;5046005;28;20304;-76
2023/07/28 11:06:43;;;;;;;5.13;1.77;;;;;;;25.51;28.31;93880.09;5046033;28;20082;-76
2023/07/28 11:09:10;;;;;;;3.22;1.52;;;;;;;25.53;26.56;93883.19;5046357;28;20193;-76
2023/07/28 11:11:39;;;;;;;5.80;1.77;;;;;;;25.51;26.17;93869.19;5046448;28;20033;-75
2023/07/28 11:14:06;;;;;;;5.85;1.73;;;;;;;25.61;27.52;93867.50;5045726;28;20040;-76
2023/07/28 11:16:34;;;;;;;3.28;1.75;;;;;;;25.66;27.27;93869.00;5046101;28;20044;-75
2023/07/28 11:19:02;;;;;;;5.13;1.70;;;;;;;25.71;26.15;93849.47;5045633;28;20029;-75
2023/07/28 11:21:28;;;;;;;5.65;1.65;;;;;;;25.72;27.69;93857.22;5045573;28;20041;-75
2023/07/28 11:23:53;;;;;;;4.38;2.08;;;;;;;25.78;27.02;93855.56;5045424;28;20028;-75
2023/07/28 11:26:20;;;;;;;4.57;1.95;;;;;;;25.79;27.29;93854.41;5045728;28;20044;-75
2023/07/28 11:28:46;;;;;;;7.00;2.10;;;;;;;25.85;26.97;93843.00;5045580;28;20047;-75